createdAt,value
2019-02-08T00:02:12.864Z,100264.00
2019-02-08T00:07:14.106Z,100254.00
2019-02-08T00:12:15.349Z,100254.00
2019-02-08T00:17:16.605Z,100264.00
2019-02-08T00:22:17.866Z,100260.00
2019-02-08T00:27:19.313Z,100264.00
2019-02-08T00:32:20.578Z,100269.00
2019-02-08T00:37:21.829Z,100281.00
2019-02-08T00:42:23.143Z,100285.00
2019-02-08T00:47:24.408Z,100290.00
2019-02-08T00:52:25.973Z,100288.00
2019-02-08T00:57:27.199Z,100290.00
2019-02-08T01:02:28.410Z,100299.00
2019-02-08T01:07:29.899Z,100289.00
2019-02-08T01:12:31.242Z,100295.00
2019-02-08T01:17:32.491Z,100287.00
2019-02-08T01:22:33.737Z,100296.00
2019-02-08T01:27:34.998Z,100296.00
2019-02-08T01:32:36.235Z,100290.00
2019-02-08T01:37:37.577Z,100290.00
2019-02-08T01:42:38.825Z,100288.00
2019-02-08T01:47:40.180Z,100302.00
2019-02-08T01:52:41.452Z,100299.00
2019-02-08T01:57:43.003Z,100300.00
2019-02-08T02:02:44.536Z,100305.00
2019-02-08T02:07:46.214Z,100302.00
2019-02-08T02:12:47.661Z,100304.00
2019-02-08T02:17:49.015Z,100295.00
2019-02-08T02:22:50.672Z,100308.00
2019-02-08T02:27:52.022Z,100311.00
2019-02-08T02:32:53.384Z,100310.00
2019-02-08T02:37:54.724Z,100298.00
2019-02-08T02:42:56.072Z,100299.00
2019-02-08T02:47:57.532Z,100298.00
2019-02-08T02:52:58.887Z,100287.00
2019-02-08T02:58:00.539Z,100295.00
2019-02-08T03:03:02.080Z,100291.00
2019-02-08T03:08:06.621Z,100298.00
2019-02-08T03:13:08.858Z,100290.00
2019-02-08T03:18:10.300Z,100301.00
2019-02-08T03:23:11.756Z,100289.00
2019-02-08T03:28:12.987Z,100293.00
2019-02-08T03:33:14.744Z,100295.00
2019-02-08T03:38:16.063Z,100302.00
2019-02-08T03:43:17.328Z,100294.00
2019-02-08T03:48:18.762Z,100291.00
2019-02-08T03:53:20.013Z,100294.00
2019-02-08T03:58:21.360Z,100290.00
2019-02-08T04:03:22.584Z,100289.00
2019-02-08T04:08:23.848Z,100289.00
2019-02-08T04:13:25.097Z,100293.00
2019-02-08T04:18:26.433Z,100293.00
2019-02-08T04:23:27.770Z,100285.00
2019-02-08T04:28:29.009Z,100291.00
2019-02-08T04:33:30.242Z,100280.00
2019-02-08T04:38:31.481Z,100288.00
2019-02-08T04:43:32.732Z,100272.00
2019-02-08T04:48:33.983Z,100281.00
2019-02-08T04:53:35.216Z,100279.00
2019-02-08T04:58:36.461Z,100272.00
2019-02-08T05:03:38.026Z,100279.00
2019-02-08T05:08:39.276Z,100278.00
2019-02-08T05:13:40.496Z,100285.00
2019-02-08T05:18:41.746Z,100278.00
2019-02-08T05:23:42.996Z,100288.00
2019-02-08T05:28:44.243Z,100288.00
2019-02-08T05:33:45.484Z,100287.00
2019-02-08T05:38:46.748Z,100282.00
2019-02-08T05:43:48.014Z,100277.00
2019-02-08T05:48:49.263Z,100280.00
2019-02-08T05:53:50.607Z,100287.00
2019-02-08T05:58:51.842Z,100278.00
2019-02-08T06:03:53.091Z,100282.00
2019-02-08T06:08:54.387Z,100275.00
2019-02-08T06:13:55.656Z,100269.00
2019-02-08T06:18:56.902Z,100277.00
2019-02-08T06:23:58.144Z,100275.00
2019-02-08T06:28:59.386Z,100276.00
2019-02-08T06:34:00.625Z,100293.00
2019-02-08T06:39:04.268Z,100290.00
2019-02-08T06:44:05.734Z,100290.00
2019-02-08T06:49:07.196Z,100291.00
2019-02-08T06:54:08.432Z,100296.00
2019-02-08T06:59:11.579Z,100305.00
2019-02-08T07:04:21.498Z,100302.00
2019-02-08T07:09:27.660Z,100288.00
2019-02-08T07:14:33.695Z,100297.00
2019-02-08T07:19:42.751Z,100298.00
2019-02-08T07:24:45.869Z,100305.00
2019-02-08T07:29:49.017Z,100299.00
2019-02-08T07:34:53.009Z,100310.00
2019-02-08T07:40:01.279Z,100307.00
2019-02-08T07:45:08.931Z,100306.00
2019-02-08T07:50:17.773Z,100318.00
2019-02-08T07:55:30.354Z,100322.00
2019-02-08T08:00:36.981Z,100317.00
2019-02-08T08:05:57.539Z,100317.00
2019-02-08T08:11:12.938Z,100316.00
2019-02-08T08:16:26.033Z,100306.00
2019-02-08T08:21:32.125Z,100310.00
2019-02-08T08:26:36.875Z,100310.00
2019-02-08T08:31:44.155Z,100300.00
2019-02-08T08:37:06.264Z,100291.00
2019-02-08T08:42:25.093Z,100288.00
2019-02-08T08:47:50.226Z,100286.00
2019-02-08T08:53:17.633Z,100298.00
2019-02-08T08:58:59.234Z,100286.00
2019-02-08T09:04:23.103Z,100285.00
2019-02-08T09:09:51.201Z,100278.00
2019-02-08T09:15:16.311Z,100289.00
2019-02-08T09:20:42.947Z,100285.00
2019-02-08T09:26:22.157Z,100295.00
2019-02-08T09:31:46.622Z,100285.00
2019-02-08T09:37:28.872Z,100287.00
2019-02-08T09:43:00.021Z,100285.00
2019-02-08T09:48:47.332Z,100282.00
2019-02-08T09:54:24.481Z,100263.00
2019-02-08T10:00:03.358Z,100269.00
2019-02-08T10:05:34.299Z,100274.00
2019-02-08T10:10:50.178Z,100263.00
2019-02-08T10:16:27.029Z,100265.00
2019-02-08T10:21:56.644Z,100262.00
2019-02-08T10:27:46.553Z,100253.00
2019-02-08T10:33:14.773Z,100246.00
2019-02-08T10:38:42.536Z,100250.00
2019-02-08T10:44:29.231Z,100245.00
2019-02-08T10:49:51.034Z,100241.00
2019-02-08T10:55:37.860Z,100229.00
2019-02-08T11:01:02.810Z,100237.00
2019-02-08T11:06:41.632Z,100215.00
2019-02-08T11:12:04.101Z,100221.00
2019-02-08T11:17:36.555Z,100215.00
2019-02-08T11:22:37.904Z,100211.00
2019-02-08T11:27:39.157Z,100198.00
2019-02-08T11:32:43.145Z,100187.00
2019-02-08T11:37:43.864Z,100176.00
2019-02-08T11:42:45.132Z,100162.00
2019-02-08T11:47:46.616Z,100161.00
2019-02-08T11:52:48.058Z,100155.00
2019-02-08T11:57:49.333Z,100145.00
2019-02-08T12:02:50.775Z,100141.00
2019-02-08T12:07:52.033Z,100124.00
2019-02-08T12:12:53.300Z,100124.00
2019-02-08T12:17:54.560Z,100117.00
2019-02-08T12:22:55.944Z,100109.00
2019-02-08T12:27:57.295Z,100104.00
2019-02-08T12:32:58.654Z,100093.00
2019-02-08T12:38:00.100Z,100081.00
2019-02-08T12:43:01.449Z,100089.00
2019-02-08T12:48:03.810Z,100082.00
2019-02-08T12:53:05.153Z,100069.00
2019-02-08T12:58:06.502Z,100051.00
2019-02-08T13:03:07.756Z,100049.00
2019-02-08T13:08:09.220Z,100035.00
2019-02-08T13:13:10.573Z,100033.00
2019-02-08T13:18:11.851Z,100022.00
2019-02-08T13:23:13.101Z,100033.00
2019-02-08T13:28:14.366Z,100019.00
2019-02-08T13:33:16.581Z,100011.00
2019-02-08T13:38:17.910Z,100007.00
2019-02-08T13:43:19.183Z,99998.00
2019-02-08T13:48:20.632Z,99988.00
2019-02-08T13:53:21.992Z,99981.00
2019-02-08T13:58:23.343Z,99973.00
2019-02-08T14:03:24.609Z,99966.00
2019-02-08T14:08:25.934Z,99976.00
2019-02-08T14:13:27.252Z,99972.00
2019-02-08T14:18:28.515Z,99960.00
2019-02-08T14:23:29.732Z,99968.00
2019-02-08T14:28:30.977Z,99967.00
2019-02-08T14:33:32.242Z,99967.00
2019-02-08T14:38:33.482Z,99969.00
2019-02-08T14:43:34.752Z,99966.00
2019-02-08T14:48:36.023Z,99952.00
2019-02-08T14:53:37.565Z,99950.00
2019-02-08T14:58:38.924Z,99949.00
2019-02-08T15:03:40.211Z,99953.00
2019-02-08T15:08:41.642Z,99952.00
2019-02-08T15:13:42.921Z,99950.00
2019-02-08T15:18:45.128Z,99940.00
2019-02-08T15:23:46.410Z,99934.00
2019-02-08T15:28:47.751Z,99924.00
2019-02-08T15:33:49.006Z,99922.00
2019-02-08T15:38:50.296Z,99922.00
2019-02-08T15:43:51.649Z,99906.00
2019-02-08T15:48:52.926Z,99914.00
2019-02-08T15:53:54.177Z,99909.00
2019-02-08T15:58:55.439Z,99908.00
2019-02-08T16:03:56.895Z,99899.00
2019-02-08T16:08:58.272Z,99898.00
2019-02-08T16:13:59.528Z,99890.00
2019-02-08T16:19:00.840Z,99878.00
2019-02-08T16:24:02.685Z,99871.00
2019-02-08T16:29:04.583Z,99862.00
2019-02-08T16:34:06.036Z,99854.00
2019-02-08T16:39:07.999Z,99853.00
2019-02-08T16:44:09.943Z,99833.00
2019-02-08T16:49:11.212Z,99822.00
2019-02-08T16:54:12.755Z,99822.00
2019-02-08T16:59:14.015Z,99794.00
2019-02-08T17:04:15.278Z,99791.00
2019-02-08T17:09:17.894Z,99787.00
2019-02-08T17:14:19.213Z,99783.00
2019-02-08T17:19:20.705Z,99785.00
2019-02-08T17:24:21.981Z,99786.00
2019-02-08T17:29:23.249Z,99774.00
2019-02-08T17:34:24.527Z,99764.00
2019-02-08T17:39:25.908Z,99762.00
2019-02-08T17:44:27.132Z,99750.00
2019-02-08T17:49:28.392Z,99755.00
2019-02-08T17:54:29.675Z,99758.00
2019-02-08T17:59:30.906Z,99739.00
2019-02-08T18:04:32.281Z,99742.00
2019-02-08T18:09:33.654Z,99759.00
2019-02-08T18:14:34.998Z,99751.00
2019-02-08T18:19:36.981Z,99750.00
2019-02-08T18:24:38.444Z,99734.00
2019-02-08T18:29:39.828Z,99737.00
2019-02-08T18:34:41.096Z,99720.00
2019-02-08T18:39:42.343Z,99730.00
2019-02-08T18:44:43.614Z,99724.00
2019-02-08T18:49:44.964Z,99714.00
2019-02-08T18:54:46.232Z,99705.00
2019-02-08T18:59:47.525Z,99702.00
2019-02-08T19:04:48.804Z,99691.00
2019-02-08T19:09:50.039Z,99676.00
2019-02-08T19:14:51.414Z,99667.00
2019-02-08T19:19:52.668Z,99659.00
2019-02-08T19:24:54.234Z,99653.00
2019-02-08T19:29:55.538Z,99643.00
2019-02-08T19:34:56.812Z,99635.00
2019-02-08T19:39:58.095Z,99625.00
2019-02-08T19:44:59.510Z,99613.00
2019-02-08T19:50:00.896Z,99616.00
2019-02-08T19:55:07.607Z,99607.00
2019-02-08T20:00:19.963Z,99608.00
2019-02-08T20:05:23.455Z,99591.00
2019-02-08T20:10:38.449Z,99582.00
2019-02-08T20:15:40.054Z,99574.00
2019-02-08T20:20:41.419Z,99578.00
2019-02-08T20:25:43.020Z,99561.00
2019-02-08T20:30:44.543Z,99567.00
2019-02-08T20:35:45.827Z,99548.00
2019-02-08T20:40:49.515Z,99532.00
2019-02-08T20:45:51.140Z,99528.00
2019-02-08T20:50:52.819Z,99516.00
2019-02-08T20:55:54.380Z,99508.00
2019-02-08T21:00:55.833Z,99517.00
2019-02-08T21:05:57.278Z,99511.00
2019-02-08T21:10:58.527Z,99503.00
2019-02-08T21:15:59.977Z,99502.00
2019-02-08T21:21:01.241Z,99495.00
2019-02-08T21:26:03.820Z,99495.00
2019-02-08T21:31:05.191Z,99469.00
2019-02-08T21:36:06.776Z,99481.00
2019-02-08T21:41:08.225Z,99466.00
2019-02-08T21:46:09.690Z,99453.00
2019-02-08T21:51:10.968Z,99447.00
2019-02-08T22:00:38.098Z,99433.00
2019-02-08T22:10:23.600Z,99447.00
2019-02-08T22:15:30.417Z,99447.00
2019-02-08T22:20:20.308Z,99451.00
2019-02-08T22:22:53.175Z,99434.00
2019-02-08T22:25:27.335Z,99430.00
2019-02-08T22:28:00.249Z,99430.00
2019-02-08T22:30:33.787Z,99426.00
2019-02-08T22:33:07.260Z,99425.00
2019-02-08T22:35:40.442Z,99425.00
2019-02-08T22:38:13.418Z,99432.00
2019-02-08T22:40:46.284Z,99435.00
2019-02-08T22:43:19.097Z,99418.00
2019-02-08T22:45:51.939Z,99412.00
2019-02-08T22:48:24.811Z,99410.00
2019-02-08T22:50:57.594Z,99410.00
2019-02-08T22:53:30.504Z,99398.00
2019-02-08T22:56:03.533Z,99400.00
2019-02-08T22:58:36.377Z,99388.00
2019-02-08T23:01:43.357Z,99374.00
2019-02-08T23:04:16.211Z,99376.00
2019-02-08T23:06:49.040Z,99365.00
2019-02-08T23:09:23.401Z,99358.00
2019-02-08T23:11:56.412Z,99359.00
2019-02-08T23:14:29.989Z,99358.00
2019-02-08T23:17:03.156Z,99358.00
2019-02-08T23:19:35.975Z,99358.00
2019-02-08T23:22:08.883Z,99352.00
2019-02-08T23:24:41.752Z,99356.00
2019-02-08T23:27:14.609Z,99346.00
2019-02-08T23:29:47.525Z,99348.00
2019-02-08T23:32:20.347Z,99342.00
2019-02-08T23:34:53.192Z,99330.00
2019-02-08T23:37:26.263Z,99324.00
2019-02-08T23:39:59.239Z,99329.00
2019-02-08T23:42:32.068Z,99318.00
2019-02-08T23:45:06.260Z,99311.00
2019-02-08T23:47:39.101Z,99321.00
2019-02-08T23:50:12.518Z,99336.00
2019-02-08T23:52:45.464Z,99327.00
2019-02-08T23:55:18.576Z,99322.00
2019-02-08T23:57:51.439Z,99313.00
